Time;durP1;ratioP1;P1;durP2;ratioP2;P2;SDS_P1;SDS_P2;PMS_P1;PMS_P2;Temp;Humidity;BMP_temperature;BMP_pressure;BME280_temperature;BME280_humidity;BME280_pressure;Samples;Min_cycle;Max_cycle;Signal;HPM_P1;HPM_P2
2021/12/01 00:00:45;;;;;;;19.30;10.45;;;-2.10;99.90;;;-1.94;100.00;96660.78;5078770;27;121147;-81
2021/12/01 00:03:13;;;;;;;21.27;10.48;;;-2.20;99.90;;;-1.95;100.00;96661.84;5085740;27;120359;-82
2021/12/01 00:05:44;;;;;;;18.08;10.13;;;-2.20;99.90;;;-1.89;100.00;96665.19;5062549;27;128166;-82
2021/12/01 00:08:13;;;;;;;20.00;10.75;;;-2.20;99.90;;;-1.95;100.00;96667.16;5062993;27;130019;-83
2021/12/01 00:10:43;;;;;;;22.05;11.73;;;-2.20;99.90;;;-1.95;100.00;96674.34;5059684;27;118577;-83
2021/12/01 00:13:15;;;;;;;23.30;11.55;;;-2.10;99.90;;;-1.93;100.00;96675.66;5097607;27;119591;-82
2021/12/01 00:15:48;;;;;;;17.52;10.25;;;-2.20;99.90;;;-1.90;100.00;96675.03;5095383;27;129852;-82
2021/12/01 00:18:17;;;;;;;19.65;10.25;;;-2.20;99.90;;;-1.83;100.00;96680.72;5087576;27;130574;-81
2021/12/01 00:20:48;;;;;;;19.50;10.63;;;-2.10;99.90;;;-1.77;100.00;96680.63;5071740;27;118429;-82
2021/12/01 00:23:17;;;;;;;20.52;11.32;;;-2.10;99.90;;;-1.79;100.00;96683.59;5088459;27;119725;-82
2021/12/01 00:25:46;;;;;;;22.63;11.68;;;-2.20;99.90;;;-1.76;100.00;96684.84;5086166;27;130045;-81
2021/12/01 00:28:14;;;;;;;23.17;12.02;;;-2.20;99.90;;;-1.83;100.00;96682.59;5089701;27;129600;-82
2021/12/01 00:30:43;;;;;;;23.08;11.50;;;-2.20;99.90;;;-1.90;100.00;96685.69;5073264;27;119309;-82
2021/12/01 00:33:17;;;;;;;19.77;10.70;;;-2.20;99.90;;;-1.94;100.00;96682.03;5059173;27;117383;-82
2021/12/01 00:35:47;;;;;;;20.35;11.40;;;-2.20;99.90;;;-1.92;100.00;96687.81;5088010;27;129858;-82
2021/12/01 00:38:16;;;;;;;22.42;12.13;;;-2.30;99.90;;;-1.96;100.00;96686.88;5093051;27;130490;-81
2021/12/01 00:40:45;;;;;;;22.73;11.30;;;-2.30;99.90;;;-2.06;100.00;96693.16;5087740;27;120294;-82
2021/12/01 00:43:26;;;;;;;20.42;10.65;;;-2.50;99.90;;;-2.18;100.00;96693.69;5069110;27;119564;-81
2021/12/01 00:45:57;;;;;;;22.42;11.52;;;-2.60;99.90;;;-2.26;100.00;96705.03;5054275;27;128889;-82
2021/12/01 00:48:27;;;;;;;19.00;10.73;;;-2.70;99.90;;;-2.40;100.00;96705.03;5067444;27;129882;-81
2021/12/01 00:50:57;;;;;;;24.05;11.95;;;-2.60;99.90;;;-2.46;100.00;96713.38;5086591;27;121936;-82
2021/12/01 00:53:26;;;;;;;22.77;11.80;;;-2.60;99.90;;;-2.37;100.00;96706.28;5087130;27;121721;-81
2021/12/01 00:55:55;;;;;;;21.23;10.52;;;-2.60;99.90;;;-2.37;100.00;96708.94;5055137;27;129455;-82
2021/12/01 00:58:23;;;;;;;21.70;10.57;;;-2.60;99.90;;;-2.34;100.00;96705.69;5068614;27;129641;-81
2021/12/01 01:00:54;;;;;;;19.55;10.70;;;-2.50;99.90;;;-2.31;100.00;96713.06;5085862;27;119546;-80
2021/12/01 01:03:24;;;;;;;21.30;10.65;;;-2.50;99.90;;;-2.36;100.00;96721.16;5056528;27;118323;-81
2021/12/01 01:05:52;;;;;;;19.23;10.00;;;-2.50;99.90;;;-2.34;100.00;96718.97;5095632;27;130018;-80
2021/12/01 01:08:22;;;;;;;20.48;10.55;;;-2.50;99.90;;;-2.47;100.00;96719.78;5061024;27;127572;-80
2021/12/01 01:16:27;;;;;;;17.13;9.02;;;-2.70;99.90;;;-2.72;100.00;96729.78;5083442;27;129586;-82
2021/12/01 01:18:59;;;;;;;18.10;9.75;;;-2.80;99.90;;;-2.73;100.00;96717.56;5062680;27;129833;-82
2021/12/01 01:21:32;;;;;;;18.45;9.93;;;-2.80;99.90;;;-2.68;100.00;96722.81;5099227;27;119597;-80
2021/12/01 01:24:03;;;;;;;20.08;10.50;;;-2.70;99.90;;;-2.62;100.00;96731.47;5077737;27;118775;-80
2021/12/01 01:26:32;;;;;;;19.08;8.88;;;-2.70;99.90;;;-2.70;100.00;96732.91;5091042;27;129934;-82
2021/12/01 01:29:07;;;;;;;18.33;9.13;;;-2.70;99.90;;;-2.68;100.00;96737.94;5057709;27;129129;-81
2021/12/01 01:31:36;;;;;;;18.98;10.13;;;-2.70;99.90;;;-2.77;100.00;96743.16;5088820;27;120075;-81
2021/12/01 01:34:06;;;;;;;16.17;8.10;;;-2.80;99.90;;;-2.83;100.00;96749.63;5057376;27;118877;-81
2021/12/01 01:36:35;;;;;;;18.70;10.20;;;-2.90;99.90;;;-2.95;100.00;96760.69;5073747;27;129348;-81
2021/12/01 01:39:06;;;;;;;17.02;8.65;;;-3.00;99.90;;;-3.05;100.00;96753.69;5073370;27;129418;-82
2021/12/01 01:41:35;;;;;;;17.52;8.45;;;-3.00;99.90;;;-3.10;100.00;96772.31;5072240;27;122114;-82
2021/12/01 01:44:05;;;;;;;18.85;9.85;;;-3.10;99.90;;;-3.09;100.00;96760.63;5088452;27;122378;-81
2021/12/01 01:46:36;;;;;;;19.48;9.27;;;-3.10;99.90;;;-3.14;100.00;96776.66;5073113;27;129075;-81
2021/12/01 01:49:10;;;;;;;17.40;9.05;;;-3.10;99.90;;;-3.25;100.00;96766.19;5088986;27;130000;-82
2021/12/01 01:51:41;;;;;;;18.10;8.98;;;-3.10;99.90;;;-3.26;100.00;96764.63;5073374;27;119360;-81
2021/12/01 01:54:12;;;;;;;15.98;8.85;;;-3.20;99.90;;;-3.25;100.00;96768.06;5056069;27;118925;-82
2021/12/01 01:56:41;;;;;;;16.02;8.75;;;-3.30;99.90;;;-3.30;100.00;96778.75;5069502;27;129686;-82
2021/12/01 01:59:10;;;;;;;17.15;8.35;;;-3.30;99.90;;;-3.33;100.00;96774.78;5072070;27;128872;-82
2021/12/01 02:01:55;;;;;;;18.23;8.70;;;-3.30;99.90;;;-3.34;100.00;96778.50;5087487;27;119615;-82
2021/12/01 02:04:25;;;;;;;17.17;8.32;;;-3.30;99.90;;;-3.35;100.00;96776.16;5088076;27;119338;-81
2021/12/01 02:06:55;;;;;;;18.08;8.23;;;-3.40;99.90;;;-3.39;100.00;96775.16;5086901;27;130758;-82
2021/12/01 02:09:25;;;;;;;16.27;8.88;;;-3.40;99.90;;;-3.50;100.00;96782.47;5087375;27;129956;-82
2021/12/01 02:11:56;;;;;;;17.00;8.68;;;-3.60;99.90;;;-3.52;100.00;96792.56;5087910;27;119535;-81
2021/12/01 02:14:26;;;;;;;15.95;8.23;;;-3.60;99.90;;;-3.51;100.00;96794.13;5088659;27;119550;-81
2021/12/01 02:16:56;;;;;;;15.65;8.45;;;-3.60;99.90;;;-3.53;100.00;96788.34;5088834;27;129861;-82
2021/12/01 02:19:26;;;;;;;15.13;7.60;;;-3.60;99.90;;;-3.57;100.00;96796.06;5069023;27;130161;-82
2021/12/01 02:21:57;;;;;;;18.02;8.80;;;-3.60;99.90;;;-3.51;100.00;96799.44;5055076;27;119000;-82
2021/12/01 02:24:26;;;;;;;18.13;9.68;;;-3.60;99.90;;;-3.53;100.00;96796.28;5073071;27;117520;-82
2021/12/01 02:26:54;;;;;;;15.98;8.18;;;-3.60;99.90;;;-3.62;100.00;96799.56;5069079;27;129679;-82
2021/12/01 02:29:28;;;;;;;16.77;7.85;;;-3.70;99.90;;;-3.68;100.00;96794.63;5087214;27;129896;-81
2021/12/01 02:31:57;;;;;;;16.25;8.27;;;-3.70;99.90;;;-3.71;100.00;96811.09;5086186;27;121931;-81
2021/12/01 02:34:27;;;;;;;16.60;8.25;;;-3.70;99.90;;;-3.79;100.00;96809.88;5072596;27;120952;-82
2021/12/01 02:37:00;;;;;;;14.45;7.63;;;-3.90;99.90;;;-3.79;100.00;96825.75;5087412;27;129884;-81
2021/12/01 02:39:29;;;;;;;16.38;8.63;;;-4.00;99.90;;;-3.82;100.00;96832.44;5090372;27;130075;-81
2021/12/01 02:42:05;;;;;;;16.95;8.82;;;-3.90;99.90;;;-3.86;100.00;96830.63;5072554;27;120043;-81
2021/12/01 02:44:34;;;;;;;13.70;7.53;;;-4.00;99.90;;;-3.84;100.00;96833.78;5090822;27;121112;-81
2021/12/01 02:47:05;;;;;;;17.45;7.45;;;-4.00;99.90;;;-3.81;100.00;96843.81;5087207;27;129718;-82
2021/12/01 02:49:33;;;;;;;15.93;7.75;;;-3.90;99.90;;;-3.85;100.00;96834.84;5052166;27;129400;-80
2021/12/01 02:52:04;;;;;;;13.75;7.15;;;-3.70;99.90;;;-3.76;100.00;96851.69;5070408;27;120434;-79
2021/12/01 02:54:33;;;;;;;14.23;6.93;;;-3.70;99.90;;;-3.84;100.00;96849.69;5070506;27;119020;-80
2021/12/01 02:57:12;;;;;;;13.43;7.05;;;-3.60;99.90;;;-3.77;100.00;96855.44;5067966;27;129640;-80
2021/12/01 02:59:40;;;;;;;15.95;8.18;;;-3.60;99.90;;;-3.78;100.00;96848.56;5073675;27;129865;-80
2021/12/01 03:02:10;;;;;;;15.95;7.65;;;-3.60;99.90;;;-3.77;100.00;96852.00;5076233;27;120204;-80
2021/12/01 03:04:39;;;;;;;15.85;8.23;;;-3.50;99.90;;;-3.79;100.00;96849.63;5065455;27;118698;-80
2021/12/01 03:07:10;;;;;;;14.27;7.65;;;-3.50;99.90;;;-3.77;100.00;96852.78;5076553;27;129726;-80
2021/12/01 03:09:39;;;;;;;14.00;7.32;;;-3.50;99.90;;;-3.76;100.00;96859.66;5067968;27;129897;-82
2021/12/01 03:12:09;;;;;;;16.95;7.63;;;-3.50;99.90;;;-3.67;100.00;96855.31;5067863;27;119612;-81
2021/12/01 03:14:38;;;;;;;13.20;7.00;;;-3.50;99.90;;;-3.64;100.00;96865.34;5068407;27;120159;-80
2021/12/01 03:17:06;;;;;;;15.68;7.05;;;-3.50;99.90;;;-3.62;100.00;96863.19;5054761;27;129153;-79
2021/12/01 03:19:35;;;;;;;13.27;6.20;;;-3.50;99.90;;;-3.55;98.64;96877.97;5075874;27;127796;-80
2021/12/01 03:22:04;;;;;;;17.20;7.78;;;-3.50;99.90;;;-3.58;98.47;96875.88;5073277;27;122333;-80
2021/12/01 03:24:36;;;;;;;13.13;7.22;;;-3.50;99.90;;;-3.61;99.10;96874.59;5075374;27;121210;-81
2021/12/01 03:27:05;;;;;;;14.30;7.63;;;-3.40;99.90;;;-3.68;99.21;96880.22;5069179;27;129948;-81
2021/12/01 03:29:34;;;;;;;13.32;6.80;;;-3.50;99.90;;;-3.77;99.65;96887.25;5050447;27;129327;-81
2021/12/01 03:32:03;;;;;;;14.85;8.10;;;-3.40;99.90;;;-3.63;98.99;96884.69;5068361;27;119535;-80
2021/12/01 03:34:32;;;;;;;11.95;6.03;;;-3.40;99.90;;;-3.69;98.48;96888.50;5070100;27;118497;-80
2021/12/01 03:37:00;;;;;;;13.07;6.05;;;-3.40;99.90;;;-3.71;98.19;96898.56;5066487;27;129665;-81
2021/12/01 03:39:30;;;;;;;9.98;5.53;;;-3.50;99.90;;;-3.75;97.62;96894.91;5066460;27;129860;-81
2021/12/01 03:42:00;;;;;;;12.68;6.25;;;-3.50;99.90;;;-3.68;97.07;96901.44;5065481;27;119595;-79
2021/12/01 03:44:29;;;;;;;11.80;5.80;;;-3.50;99.90;;;-3.74;96.87;96905.25;5067732;27;118238;-82
2021/12/01 03:46:57;;;;;;;10.80;5.88;;;-3.50;99.90;;;-3.76;97.03;96909.22;5066407;27;129386;-83
2021/12/01 03:49:26;;;;;;;14.82;6.57;;;-3.60;99.90;;;-3.80;97.13;96904.50;5050511;27;128712;-82
2021/12/01 03:51:55;;;;;;;11.07;5.80;;;-3.60;99.90;;;-3.70;96.49;96908.91;5066003;27;119814;-82
2021/12/01 03:54:25;;;;;;;10.45;6.03;;;-3.50;99.90;;;-3.68;96.41;96921.88;5067693;27;118523;-82
2021/12/01 03:56:53;;;;;;;12.02;5.75;;;-3.50;99.90;;;-3.69;95.75;96925.59;5065676;27;131197;-81
2021/12/01 03:59:23;;;;;;;11.57;5.90;;;-3.50;99.90;;;-3.68;95.18;96922.66;5067762;27;129087;-83
2021/12/01 04:01:53;;;;;;;12.50;6.20;;;-3.40;99.90;;;-3.66;95.77;96928.47;5071974;27;119269;-80
2021/12/01 04:04:22;;;;;;;13.00;5.15;;;-3.50;99.90;;;-3.63;95.72;96940.34;5065558;27;116754;-81
2021/12/01 04:06:50;;;;;;;13.73;6.40;;;-3.40;99.90;;;-3.51;95.14;96929.38;5082552;27;130680;-80
2021/12/01 04:09:19;;;;;;;13.88;6.35;;;-3.40;99.90;;;-3.56;93.98;96930.22;5080692;27;128497;-80
2021/12/01 04:11:48;;;;;;;12.77;6.15;;;-3.40;99.90;;;-3.52;94.17;96935.72;5079927;27;121534;-80
2021/12/01 04:14:17;;;;;;;13.65;5.78;;;-3.30;99.90;;;-3.52;92.93;96935.72;5073544;27;121773;-80
2021/12/01 04:16:47;;;;;;;12.45;6.55;;;-3.40;99.90;;;-3.52;93.02;96938.38;5067305;27;129004;-80
2021/12/01 04:19:17;;;;;;;10.65;5.47;;;-3.40;99.90;;;-3.52;93.09;96941.03;5067045;27;128906;-81
2021/12/01 04:21:53;;;;;;;12.32;5.82;;;-3.30;99.90;;;-3.54;92.66;96948.50;5065315;27;119531;-81
2021/12/01 04:24:22;;;;;;;11.27;6.00;;;-3.40;99.90;;;-3.47;92.29;96939.13;5065659;27;119446;-81
2021/12/01 04:26:52;;;;;;;13.25;5.88;;;-3.40;99.90;;;-3.43;92.67;96942.00;5066884;27;129390;-81
2021/12/01 04:29:21;;;;;;;12.55;6.28;;;-3.40;99.90;;;-3.42;92.45;96953.41;5064057;27;129772;-82
2021/12/01 04:31:51;;;;;;;10.93;5.25;;;-3.40;99.90;;;-3.43;92.10;96949.94;5068364;27;118658;-81
2021/12/01 04:34:21;;;;;;;11.52;5.60;;;-3.30;99.90;;;-3.34;91.62;96952.78;5051821;27;118956;-81
2021/12/01 04:36:51;;;;;;;11.57;5.40;;;-3.30;99.90;;;-3.21;90.78;96948.66;5068672;27;130496;-81
2021/12/01 04:39:21;;;;;;;12.98;5.97;;;-3.30;99.90;;;-3.22;90.19;96961.13;5051964;27;128960;-81
2021/12/01 04:42:04;;;;;;;12.85;6.57;;;-3.30;99.90;;;-3.22;90.35;96960.34;5067110;27;119632;-81
2021/12/01 04:44:36;;;;;;;10.60;5.13;;;-3.20;99.90;;;-3.11;89.65;96956.50;5048285;27;119567;-80
2021/12/01 04:47:09;;;;;;;18.92;9.57;;;-3.20;99.90;;;-3.05;88.65;96959.84;5061228;27;131043;-80
2021/12/01 04:49:39;;;;;;;17.30;9.65;;;-3.20;99.90;;;-2.96;88.65;96966.91;5078627;27;129297;-80
2021/12/01 04:52:10;;;;;;;13.70;6.93;;;-3.10;99.90;;;-3.03;87.57;96977.06;5058824;27;118728;-80
2021/12/01 04:54:39;;;;;;;10.52;5.80;;;-3.20;99.90;;;-3.04;87.79;96978.13;5076513;27;119026;-81
2021/12/01 04:57:09;;;;;;;21.35;11.85;;;-3.20;99.90;;;-2.98;87.29;96977.00;5075242;27;129044;-83
2021/12/01 04:59:38;;;;;;;21.08;11.20;;;-3.20;99.90;;;-3.02;88.46;96976.00;5084582;27;131439;-82
2021/12/01 05:02:08;;;;;;;23.90;13.48;;;-3.20;99.90;;;-3.03;89.25;96974.44;5068584;27;121692;-82
2021/12/01 05:04:38;;;;;;;25.85;14.85;;;-3.10;99.90;;;-2.89;88.19;96983.25;5066795;27;121975;-82
2021/12/01 05:07:06;;;;;;;16.23;7.18;;;-3.10;99.90;;;-2.90;87.66;96988.84;5044821;27;129064;-83
2021/12/01 05:09:35;;;;;;;17.67;9.85;;;-3.10;99.90;;;-2.91;88.46;96990.72;5049068;27;128855;-83
2021/12/01 05:12:06;;;;;;;19.70;9.13;;;-3.10;99.90;;;-2.92;88.94;96986.47;5064680;27;119837;-83
2021/12/01 05:14:36;;;;;;;16.83;10.20;;;-3.10;99.90;;;-2.97;88.07;96978.59;5049501;27;118389;-82
2021/12/01 05:17:08;;;;;;;28.52;13.38;;;-3.10;99.90;;;-2.90;87.88;96981.69;5048939;27;128767;-83
2021/12/01 05:19:37;;;;;;;25.08;13.65;;;-3.10;99.90;;;-3.01;88.24;96982.88;5064646;27;130383;-82
2021/12/01 05:22:06;;;;;;;25.67;13.20;;;-3.10;99.90;;;-2.90;87.38;96983.53;5050180;27;119149;-80
2021/12/01 05:24:35;;;;;;;17.08;9.43;;;-3.10;99.90;;;-2.95;87.89;96992.34;5048587;27;118956;-82
2021/12/01 05:27:05;;;;;;;15.90;8.40;;;-3.10;99.90;;;-2.93;87.00;96990.22;5030685;27;129053;-76
2021/12/01 05:29:33;;;;;;;21.27;10.73;;;-3.20;99.90;;;-2.95;87.06;96987.06;5044406;27;130213;-75
2021/12/01 05:32:03;;;;;;;22.77;10.68;;;-3.20;99.90;;;-2.95;86.79;96996.88;5065394;27;119357;-75
2021/12/01 05:34:33;;;;;;;30.25;15.65;;;-3.20;99.90;;;-3.02;87.94;96999.91;5047502;27;118206;-76
2021/12/01 05:37:02;;;;;;;26.98;14.77;;;-3.20;99.90;;;-2.92;87.20;97007.72;5029951;27;129813;-76
2021/12/01 05:39:32;;;;;;;36.97;17.02;;;-3.30;99.90;;;-3.02;87.46;97007.84;5063071;27;129836;-75
2021/12/01 05:42:02;;;;;;;25.35;14.95;;;-3.20;99.90;;;-3.01;87.44;97009.41;5048486;27;119193;-76
2021/12/01 05:44:30;;;;;;;19.02;11.77;;;-3.30;99.90;;;-3.05;88.12;97019.03;5063131;27;119553;-75
2021/12/01 05:46:59;;;;;;;18.73;12.00;;;-3.20;99.90;;;-3.07;88.34;97021.16;5066056;27;130203;-75
2021/12/01 05:49:28;;;;;;;26.17;16.00;;;-3.20;99.90;;;-3.02;88.15;97023.78;5063536;27;129754;-75
2021/12/01 05:51:58;;;;;;;19.60;11.40;;;-3.20;99.90;;;-3.04;87.46;97025.13;5046575;27;121668;-76
2021/12/01 05:54:27;;;;;;;33.92;19.55;;;-3.20;99.90;;;-3.08;88.77;97032.88;5063511;27;122136;-76
2021/12/01 05:56:56;;;;;;;36.45;18.40;;;-3.20;99.90;;;-2.94;87.94;97027.69;5065440;27;130417;-76
2021/12/01 05:59:24;;;;;;;34.65;18.88;;;-3.10;99.90;;;-2.90;88.00;97036.63;5065783;27;129741;-75
2021/12/01 06:01:54;;;;;;;31.17;19.42;;;-3.20;99.90;;;-2.94;87.16;97033.75;5048321;27;119854;-76
2021/12/01 06:04:24;;;;;;;43.67;23.27;;;-3.10;99.90;;;-2.88;86.00;97029.19;5065741;27;120065;-75
2021/12/01 06:06:53;;;;;;;20.88;11.75;;;-3.10;99.90;;;-2.94;86.87;97036.41;5050679;27;129558;-74
2021/12/01 06:09:23;;;;;;;28.23;15.23;;;-3.20;99.90;;;-2.87;85.77;97037.94;5034458;27;128444;-75
2021/12/01 06:11:52;;;;;;;17.52;11.00;;;-3.10;99.90;;;-2.91;86.66;97043.03;5066789;27;120446;-75
2021/12/01 06:14:21;;;;;;;18.60;11.55;;;-3.10;99.90;;;-2.99;86.11;97044.44;5048766;27;119325;-76
2021/12/01 06:16:50;;;;;;;16.38;9.40;;;-3.20;99.90;;;-2.90;85.92;97042.75;5047449;27;129795;-76
2021/12/01 06:19:19;;;;;;;14.48;6.60;;;-3.20;99.90;;;-3.00;86.74;97058.00;5066267;27;129842;-76
2021/12/01 06:21:48;;;;;;;20.25;9.77;;;-3.20;99.90;;;-3.02;86.79;97062.78;5068844;27;119701;-75
2021/12/01 06:24:16;;;;;;;13.65;7.03;;;-3.10;99.90;;;-2.99;86.76;97067.53;5051231;27;120742;-75
2021/12/01 06:26:46;;;;;;;16.17;8.20;;;-3.10;99.90;;;-2.98;86.60;97067.25;5066810;27;129742;-76
2021/12/01 06:29:15;;;;;;;20.05;9.80;;;-3.10;99.90;;;-2.85;86.58;97068.44;5067025;27;129956;-76
2021/12/01 06:31:43;;;;;;;14.63;8.32;;;-3.10;99.90;;;-2.89;86.89;97060.25;5068060;27;120173;-76
2021/12/01 06:34:12;;;;;;;17.10;8.77;;;-3.00;99.90;;;-2.89;86.46;97076.16;5051918;27;118498;-75
2021/12/01 06:36:41;;;;;;;11.05;4.97;;;-3.10;99.90;;;-2.91;86.22;97082.84;5065629;27;130044;-76
2021/12/01 06:39:10;;;;;;;15.40;9.23;;;-3.00;99.90;;;-2.92;87.62;97081.25;5047698;27;129660;-75
2021/12/01 06:41:39;;;;;;;14.25;7.22;;;-3.00;99.90;;;-2.84;87.21;97072.66;5049815;27;120930;-75
2021/12/01 06:44:10;;;;;;;15.25;6.85;;;-3.00;99.90;;;-2.81;87.22;97087.25;5049389;27;121921;-75
2021/12/01 06:46:39;;;;;;;9.95;6.15;;;-3.00;99.90;;;-2.82;88.14;97088.31;5067754;27;129861;-75
2021/12/01 06:49:08;;;;;;;13.02;5.90;;;-2.90;99.90;;;-2.69;87.28;97079.66;5068487;27;130673;-76
2021/12/01 06:51:37;;;;;;;11.93;5.50;;;-2.90;99.90;;;-2.74;86.71;97093.00;5066175;27;120166;-76
2021/12/01 06:54:06;;;;;;;11.38;6.22;;;-2.90;99.90;;;-2.89;87.54;97097.41;5050962;27;118525;-76
2021/12/01 06:56:35;;;;;;;12.95;7.65;;;-3.00;99.90;;;-2.74;87.74;97100.97;5032498;27;129092;-75
2021/12/01 06:59:04;;;;;;;10.27;5.10;;;-2.90;99.90;;;-2.78;88.24;97102.59;5064661;27;129831;-75
2021/12/01 07:01:35;;;;;;;11.00;6.60;;;-2.90;99.90;;;-2.66;87.81;97108.31;5065627;27;120134;-76
2021/12/01 07:04:04;;;;;;;12.88;7.15;;;-2.90;99.90;;;-2.58;88.41;97112.97;5065876;27;119195;-76
2021/12/01 07:06:33;;;;;;;10.73;4.60;;;-2.90;99.90;;;-2.56;87.18;97110.81;5049092;27;129306;-75
2021/12/01 07:09:02;;;;;;;11.85;7.07;;;-2.90;99.90;;;-2.60;88.65;97104.50;5064559;27;129614;-75
2021/12/01 07:11:31;;;;;;;11.35;5.22;;;-2.80;99.90;;;-2.46;87.87;97098.50;5065450;27;120114;-75
2021/12/01 07:14:00;;;;;;;8.45;4.53;;;-2.80;99.90;;;-2.65;87.23;97115.22;5065842;27;119439;-74
2021/12/01 07:16:30;;;;;;;10.27;4.20;;;-2.80;99.90;;;-2.71;87.54;97132.28;5047876;27;129067;-74
2021/12/01 07:18:59;;;;;;;10.40;4.15;;;-2.90;99.90;;;-2.57;87.13;97127.84;5065435;27;129750;-75
2021/12/01 07:21:28;;;;;;;9.75;5.10;;;-2.80;99.90;;;-2.45;88.34;97118.69;5064655;27;119613;-76
2021/12/01 07:23:57;;;;;;;12.77;6.15;;;-2.70;99.90;;;-2.32;88.02;97133.13;5065443;27;119178;-75
2021/12/01 07:26:27;;;;;;;9.70;5.80;;;-2.70;99.90;;;-2.38;86.79;97140.38;5032471;27;129370;-75
2021/12/01 07:28:55;;;;;;;9.13;4.60;;;-2.70;99.90;;;-2.42;86.53;97139.34;5049438;27;128567;-75
2021/12/01 07:31:24;;;;;;;10.18;4.85;;;-2.70;99.90;;;-2.32;86.67;97131.28;5063323;27;122066;-75
2021/12/01 07:33:53;;;;;;;9.40;4.95;;;-2.60;99.90;;;-2.30;86.81;97134.44;5066305;27;122288;-75
2021/12/01 07:36:24;;;;;;;6.57;3.97;;;-2.60;99.90;;;-2.41;86.41;97138.28;5064768;27;130132;-76
2021/12/01 07:38:54;;;;;;;7.68;3.85;;;-2.60;99.90;;;-2.40;85.52;97150.47;5045973;27;129684;-75
2021/12/01 07:41:23;;;;;;;8.00;4.10;;;-2.70;99.90;;;-2.29;85.75;97141.34;5064405;27;119769;-76
2021/12/01 07:43:51;;;;;;;8.63;4.47;;;-2.60;99.90;;;-2.12;85.22;97156.81;5065729;27;119739;-79
2021/12/01 07:46:20;;;;;;;7.22;3.33;;;-2.50;99.90;;;-2.20;84.66;97152.91;5050945;27;129807;-75
2021/12/01 07:48:49;;;;;;;8.63;4.10;;;-2.60;99.90;;;-2.18;84.56;97152.63;5050534;27;128763;-75
2021/12/01 07:51:18;;;;;;;8.88;4.78;;;-2.50;99.90;;;-2.01;84.43;97168.88;5065818;27;119492;-75
2021/12/01 07:53:49;;;;;;;10.05;5.32;;;-2.40;99.90;;;-1.82;83.30;97158.22;5050650;27;119404;-76
2021/12/01 07:56:18;;;;;;;8.43;4.10;;;-2.40;99.90;;;-1.90;81.98;97180.16;5064227;27;130350;-75
2021/12/01 07:58:49;;;;;;;9.60;4.85;;;-2.50;99.90;;;-1.83;82.54;97175.25;5065339;27;129794;-75
2021/12/01 08:01:17;;;;;;;9.70;6.03;;;-2.40;99.90;;;-1.74;82.71;97182.59;5067547;27;119847;-75
2021/12/01 08:03:46;;;;;;;7.63;4.60;;;-2.40;99.90;;;-1.66;82.44;97179.28;5085491;27;119316;-75
2021/12/01 08:06:25;;;;;;;7.32;3.85;;;-2.40;99.90;;;-1.64;80.72;97177.13;5085644;27;129867;-75
2021/12/01 08:08:55;;;;;;;10.20;5.65;;;-2.30;99.90;;;-1.53;81.32;97189.19;5067240;27;129849;-76
2021/12/01 08:11:23;;;;;;;10.50;5.38;;;-2.30;99.90;;;-1.40;80.79;97189.53;5087273;27;120617;-76
2021/12/01 08:13:52;;;;;;;7.70;4.82;;;-2.10;99.90;;;-1.38;79.68;97184.75;5086311;27;119279;-76
2021/12/01 08:16:21;;;;;;;9.13;4.80;;;-2.20;99.90;;;-1.43;80.03;97192.78;5085376;27;130041;-76
2021/12/01 08:18:54;;;;;;;10.38;5.03;;;-2.20;99.90;;;-1.39;80.30;97193.78;5070205;27;128729;-75
2021/12/01 08:21:30;;;;;;;11.73;5.20;;;-2.20;99.90;;;-1.42;80.24;97210.34;5084622;27;121928;-75
2021/12/01 08:24:01;;;;;;;7.32;4.47;;;-2.10;99.90;;;-1.46;80.03;97226.88;5085581;27;121817;-76
2021/12/01 08:26:30;;;;;;;9.23;5.47;;;-2.10;99.90;;;-1.38;80.22;97237.97;5085267;27;129817;-76
2021/12/01 08:28:59;;;;;;;11.20;6.03;;;-2.10;99.90;;;-1.26;79.79;97235.66;5067013;27;129661;-83
2021/12/01 08:31:28;;;;;;;10.70;6.00;;;-2.10;99.90;;;-1.17;79.71;97231.25;5085747;27;119482;-83
2021/12/01 08:33:57;;;;;;;6.13;3.47;;;-2.00;99.90;;;-1.22;78.70;97244.63;5070547;27;118140;-83
2021/12/01 08:36:26;;;;;;;7.78;3.50;;;-2.00;99.90;;;-1.49;78.97;97248.72;5053135;27;129419;-82
2021/12/01 08:38:54;;;;;;;8.02;4.85;;;-2.10;99.90;;;-1.27;80.03;97239.38;5070654;27;129563;-83
2021/12/01 08:41:25;;;;;;;10.45;5.30;;;-2.00;99.90;;;-1.32;79.85;97242.13;5070261;27;119184;-82
2021/12/01 08:43:54;;;;;;;8.18;4.63;;;-2.10;99.90;;;-1.38;80.60;97240.63;5070202;27;118868;-81
2021/12/01 08:46:22;;;;;;;6.80;3.75;;;-2.00;99.90;;;-1.36;80.10;97246.44;5069172;27;129375;-80
2021/12/01 08:48:51;;;;;;;9.95;4.60;;;-2.10;99.90;;;-1.25;81.55;97242.53;5066303;27;129824;-82
2021/12/01 08:51:20;;;;;;;7.43;4.20;;;-2.00;99.90;;;-1.16;80.50;97246.13;5069609;27;118720;-82
2021/12/01 08:53:49;;;;;;;9.95;5.25;;;-1.90;99.90;;;-1.10;80.04;97244.97;5052877;27;118792;-81
2021/12/01 08:56:18;;;;;;;5.97;2.95;;;-1.90;99.90;;;-1.10;80.36;97252.94;5084619;27;130147;-82
2021/12/01 08:58:48;;;;;;;6.35;3.40;;;-1.90;99.90;;;-1.31;80.61;97273.78;5066395;27;129875;-81
2021/12/01 09:01:17;;;;;;;9.75;4.85;;;-1.90;99.90;;;-1.28;81.54;97264.41;5084927;27;119906;-83
2021/12/01 09:03:46;;;;;;;6.72;3.25;;;-2.00;99.90;;;-1.18;80.60;97264.25;5067114;27;119612;-82
2021/12/01 09:06:15;;;;;;;6.18;3.05;;;-1.90;99.90;;;-1.12;80.47;97268.44;5087318;27;129758;-83
2021/12/01 09:08:47;;;;;;;9.63;5.35;;;-2.00;99.90;;;-1.24;80.73;97278.72;5068560;27;129019;-82
2021/12/01 09:11:17;;;;;;;6.80;3.72;;;-1.90;99.90;;;-1.13;80.29;97266.84;5065024;27;123037;-83
2021/12/01 09:13:47;;;;;;;5.82;3.20;;;-1.90;99.90;;;-1.18;81.17;97282.91;5069816;27;121380;-82
2021/12/01 09:16:15;;;;;;;7.63;4.43;;;-1.90;99.90;;;-1.19;81.08;97289.28;5084502;27;130586;-82
2021/12/01 09:18:44;;;;;;;6.07;3.10;;;-1.90;99.90;;;-1.41;82.66;97275.78;5069578;27;128889;-82
2021/12/01 09:21:13;;;;;;;8.57;4.88;;;-2.00;99.90;;;-1.28;82.52;97269.72;5085138;27;120021;-83
2021/12/01 09:23:44;;;;;;;7.05;4.25;;;-2.00;99.90;;;-1.22;82.26;97273.91;5069981;27;118899;-83
2021/12/01 09:26:13;;;;;;;5.10;2.88;;;-1.90;99.90;;;-1.12;81.12;97297.72;5035819;27;128721;-82
2021/12/01 09:28:41;;;;;;;9.88;5.57;;;-1.90;99.90;;;-1.05;81.60;97277.91;5085192;27;129983;-83
2021/12/01 09:31:15;;;;;;;9.95;4.03;;;-1.80;99.90;;;-0.79;81.13;97276.44;5069892;27;118828;-83
2021/12/01 09:33:44;;;;;;;9.30;5.25;;;-1.60;99.90;;;-0.85;81.29;97277.59;5084926;27;119446;-82
2021/12/01 09:36:27;;;;;;;7.75;4.20;;;-1.70;99.90;;;-0.62;79.94;97280.44;5083203;27;129887;-82
2021/12/01 09:38:56;;;;;;;7.82;3.63;;;-1.50;99.90;;;-0.64;79.96;97287.91;5052427;27;129640;-82
2021/12/01 09:41:25;;;;;;;7.95;4.00;;;-1.50;99.90;;;-0.53;80.81;97286.69;5069036;27;119424;-83
2021/12/01 09:43:54;;;;;;;8.18;3.33;;;-1.50;99.90;;;-0.12;79.12;97309.94;5090591;27;119813;-81
2021/12/01 09:46:26;;;;;;;5.38;3.20;;;-1.30;99.90;;;-0.16;78.70;97286.81;5071712;27;129778;-82
2021/12/01 09:48:55;;;;;;;6.75;3.30;;;-1.30;99.90;;;-0.03;77.99;97302.81;5055240;27;128751;-81
2021/12/01 09:51:24;;;;;;;6.63;3.17;;;-1.10;99.90;;;-0.01;78.10;97297.97;5073291;27;119125;-83
2021/12/01 09:53:55;;;;;;;7.68;3.15;;;-1.00;99.90;;;-0.15;77.02;97315.84;5056549;27;118320;-82
2021/12/01 09:56:25;;;;;;;6.30;2.95;;;-1.20;99.90;;;-0.22;77.22;97320.78;5075570;27;129537;-81
2021/12/01 09:58:54;;;;;;;5.93;3.22;;;-1.30;99.90;;;-0.07;78.41;97304.50;5080127;27;129788;-82
2021/12/01 10:01:27;;;;;;;5.13;2.78;;;-1.20;99.90;;;0.02;76.87;97301.13;5072373;27;121341;-82
2021/12/01 10:03:56;;;;;;;5.28;2.78;;;-1.10;99.90;;;-0.01;75.98;97310.53;5088718;27;122278;-81
2021/12/01 10:06:26;;;;;;;5.90;3.40;;;-1.10;99.90;;;0.19;76.11;97301.34;5089618;27;129886;-81
2021/12/01 10:09:00;;;;;;;8.45;4.68;;;-1.10;99.90;;;0.46;76.27;97297.06;5076433;27;130571;-81
2021/12/01 10:11:30;;;;;;;5.70;2.97;;;-0.90;99.90;;;0.17;75.46;97312.31;5097519;27;119720;-81
2021/12/01 10:14:03;;;;;;;6.57;3.13;;;-1.00;99.90;;;0.22;75.45;97318.63;5056989;27;118612;-82
2021/12/01 10:16:38;;;;;;;5.78;3.53;;;-0.90;99.90;;;0.40;76.13;97292.94;5072306;27;128909;-82
2021/12/01 10:19:09;;;;;;;6.65;3.10;;;-0.80;99.90;;;0.30;75.20;97308.06;5088819;27;129691;-81
2021/12/01 10:21:41;;;;;;;8.57;2.90;;;-0.80;99.90;;;0.13;75.47;97299.88;5088306;27;120144;-81